createdAt,value
2017-08-25T00:02:20.319Z,19.30
2017-08-25T00:04:46.589Z,19.30
2017-08-25T00:07:13.165Z,19.10
2017-08-25T00:09:39.334Z,19.10
2017-08-25T00:12:06.231Z,19.10
2017-08-25T00:14:32.394Z,19.00
2017-08-25T00:16:58.566Z,19.00
2017-08-25T00:19:24.735Z,19.00
2017-08-25T00:21:50.922Z,18.90
2017-08-25T00:24:17.092Z,19.00
2017-08-25T00:26:43.329Z,19.00
2017-08-25T00:29:09.512Z,19.00
2017-08-25T00:31:35.766Z,19.00
2017-08-25T00:34:02.297Z,19.10
2017-08-25T00:36:28.492Z,19.20
2017-08-25T00:38:54.681Z,19.30
2017-08-25T00:41:20.922Z,19.30
2017-08-25T00:43:47.167Z,19.20
2017-08-25T00:46:13.339Z,19.20
2017-08-25T00:48:39.917Z,19.10
2017-08-25T00:51:06.117Z,19.00
2017-08-25T00:53:32.341Z,19.10
2017-08-25T00:55:59.279Z,19.10
2017-08-25T00:58:25.458Z,19.20
2017-08-25T01:00:51.702Z,19.20
2017-08-25T01:03:17.864Z,19.30
2017-08-25T01:05:44.062Z,19.30
2017-08-25T01:08:10.261Z,19.30
2017-08-25T01:10:36.735Z,19.30
2017-08-25T01:13:02.900Z,19.40
2017-08-25T01:15:29.102Z,19.30
2017-08-25T01:17:55.273Z,19.30
2017-08-25T01:20:21.462Z,19.20
2017-08-25T01:22:47.676Z,19.10
2017-08-25T01:25:14.942Z,19.10
2017-08-25T01:27:42.078Z,19.00
2017-08-25T01:30:08.260Z,19.10
2017-08-25T01:32:34.443Z,19.10
2017-08-25T01:35:00.624Z,19.10
2017-08-25T01:37:26.804Z,19.00
2017-08-25T01:39:53.048Z,19.10
2017-08-25T01:42:19.248Z,19.10
2017-08-25T01:44:46.182Z,19.00
2017-08-25T01:47:12.436Z,19.10
2017-08-25T01:49:38.623Z,19.10
2017-08-25T01:52:04.881Z,19.10
2017-08-25T01:54:31.049Z,19.10
2017-08-25T01:56:57.290Z,19.10
2017-08-25T01:59:23.504Z,19.10
2017-08-25T02:01:49.694Z,19.10
2017-08-25T02:04:15.980Z,19.10
2017-08-25T02:06:42.586Z,19.10
2017-08-25T02:09:09.526Z,19.10
2017-08-25T02:11:35.695Z,19.10
2017-08-25T02:14:01.890Z,19.10
2017-08-25T02:16:28.489Z,19.10
2017-08-25T02:18:54.723Z,19.10
2017-08-25T02:21:20.931Z,19.10
2017-08-25T02:23:47.121Z,19.10
2017-08-25T02:26:13.327Z,19.10
2017-08-25T02:28:39.525Z,19.00
2017-08-25T02:31:05.741Z,18.90
2017-08-25T02:33:31.944Z,19.00
2017-08-25T02:35:58.122Z,19.10
2017-08-25T02:38:24.331Z,19.10
2017-08-25T02:40:50.498Z,19.10
2017-08-25T02:43:16.659Z,19.00
2017-08-25T02:45:42.813Z,19.00
2017-08-25T02:48:09.387Z,18.80
2017-08-25T02:50:35.536Z,18.80
2017-08-25T02:53:02.467Z,18.80
2017-08-25T02:55:28.629Z,18.80
2017-08-25T02:57:56.294Z,18.80
2017-08-25T03:00:22.470Z,18.70
2017-08-25T03:02:48.596Z,18.80
2017-08-25T03:05:14.782Z,18.70
2017-08-25T03:07:40.939Z,18.80
2017-08-25T03:10:07.093Z,18.90
2017-08-25T03:12:33.315Z,18.90
2017-08-25T03:14:59.835Z,18.90
2017-08-25T03:17:25.982Z,18.90
2017-08-25T03:19:52.201Z,18.90
2017-08-25T03:22:18.378Z,18.80
2017-08-25T03:24:44.584Z,18.90
2017-08-25T03:27:10.743Z,18.90
2017-08-25T03:29:36.947Z,18.90
2017-08-25T03:32:03.505Z,18.80
2017-08-25T03:34:29.657Z,18.80
2017-08-25T03:36:55.804Z,18.80
2017-08-25T03:39:21.986Z,18.90
2017-08-25T03:41:48.120Z,18.80
2017-08-25T03:44:14.286Z,18.70
2017-08-25T03:46:40.492Z,18.70
2017-08-25T03:49:06.757Z,18.60
2017-08-25T03:51:32.904Z,18.50
2017-08-25T03:53:59.066Z,18.30
2017-08-25T03:56:25.231Z,18.40
2017-08-25T03:58:51.403Z,18.40
2017-08-25T04:01:18.710Z,18.40
2017-08-25T04:03:44.894Z,18.40
2017-08-25T04:06:11.099Z,18.40
2017-08-25T04:08:37.271Z,18.30
2017-08-25T04:11:03.454Z,18.30
2017-08-25T04:13:29.629Z,18.20
2017-08-25T04:15:55.814Z,18.20
2017-08-25T04:18:22.016Z,18.10
2017-08-25T04:20:48.190Z,18.10
2017-08-25T04:23:14.354Z,18.10
2017-08-25T04:25:40.546Z,17.70
2017-08-25T04:28:06.750Z,18.10
2017-08-25T04:30:32.954Z,18.10
2017-08-25T04:32:59.143Z,18.10
2017-08-25T04:35:25.327Z,18.10
2017-08-25T04:37:51.530Z,18.10
2017-08-25T04:40:17.715Z,18.10
2017-08-25T04:42:43.895Z,18.20
2017-08-25T04:45:10.833Z,18.30
2017-08-25T04:47:37.042Z,18.30
2017-08-25T04:50:03.267Z,18.20
2017-08-25T04:52:29.413Z,18.30
2017-08-25T04:54:56.321Z,18.60
2017-08-25T04:57:22.512Z,18.60
2017-08-25T04:59:49.070Z,18.80
2017-08-25T05:02:15.265Z,18.90
2017-08-25T05:04:41.470Z,19.10
2017-08-25T05:07:07.630Z,19.00
2017-08-25T05:09:33.774Z,19.10
2017-08-25T05:11:59.960Z,19.20
2017-08-25T05:14:26.133Z,19.20
2017-08-25T05:16:52.343Z,19.30
2017-08-25T05:19:18.555Z,19.30
2017-08-25T05:21:44.729Z,19.40
2017-08-25T05:24:10.960Z,19.40
2017-08-25T05:26:37.127Z,18.60
2017-08-25T05:29:03.316Z,19.50
2017-08-25T05:31:29.514Z,19.50
2017-08-25T05:33:55.666Z,19.50
2017-08-25T05:36:21.825Z,19.60
2017-08-25T05:38:48.023Z,19.60
2017-08-25T05:41:14.574Z,19.70
2017-08-25T05:43:41.093Z,19.70
2017-08-25T05:46:07.304Z,19.70
2017-08-25T05:48:33.536Z,19.60
2017-08-25T05:50:59.770Z,19.70
2017-08-25T05:53:25.938Z,19.70
2017-08-25T05:55:52.124Z,19.70
2017-08-25T05:58:18.334Z,19.70
2017-08-25T06:00:44.519Z,19.70
2017-08-25T06:03:10.723Z,19.70
2017-08-25T06:05:36.910Z,19.80
2017-08-25T06:08:03.106Z,20.00
2017-08-25T06:10:29.292Z,20.30
2017-08-25T06:12:55.509Z,20.50
2017-08-25T06:15:21.692Z,20.80
2017-08-25T06:17:47.851Z,21.00
2017-08-25T06:20:14.019Z,21.20
2017-08-25T06:22:40.189Z,21.20
2017-08-25T06:25:06.353Z,21.20
2017-08-25T06:27:32.503Z,21.20
2017-08-25T06:29:59.384Z,21.10
2017-08-25T06:32:25.604Z,21.10
2017-08-25T06:34:51.780Z,21.20
2017-08-25T06:37:17.936Z,21.40
2017-08-25T06:39:44.079Z,21.80
2017-08-25T06:42:10.268Z,21.80
2017-08-25T06:44:36.453Z,22.10
2017-08-25T06:47:02.657Z,22.30
2017-08-25T06:49:28.854Z,22.60
2017-08-25T06:51:55.058Z,22.80
2017-08-25T06:54:21.261Z,22.90
2017-08-25T06:56:47.405Z,23.10
2017-08-25T06:59:13.580Z,23.20
2017-08-25T07:01:39.759Z,23.10
2017-08-25T07:04:05.939Z,22.60
2017-08-25T07:06:32.154Z,22.40
2017-08-25T07:08:58.371Z,22.00
2017-08-25T07:11:24.524Z,21.90
2017-08-25T07:13:50.695Z,21.90
2017-08-25T07:16:16.881Z,22.00
2017-08-25T07:18:43.133Z,22.60
2017-08-25T07:21:09.330Z,23.40
2017-08-25T07:23:35.525Z,23.50
2017-08-25T07:26:02.462Z,23.30
2017-08-25T07:28:29.373Z,23.00
2017-08-25T07:30:55.571Z,22.80
2017-08-25T07:33:21.750Z,22.50
2017-08-25T07:35:47.914Z,22.50
2017-08-25T07:38:14.853Z,22.60
2017-08-25T07:40:41.400Z,22.70
2017-08-25T07:43:09.067Z,23.00
2017-08-25T07:45:35.234Z,23.60
2017-08-25T07:48:02.154Z,24.60
2017-08-25T07:50:28.402Z,25.10
2017-08-25T07:52:54.614Z,25.50
2017-08-25T07:55:20.774Z,25.90
2017-08-25T07:57:46.959Z,26.20
2017-08-25T08:00:13.191Z,26.50
2017-08-25T08:02:39.355Z,26.50
2017-08-25T08:05:05.592Z,27.40
2017-08-25T08:07:31.789Z,27.70
2017-08-25T08:09:57.996Z,28.00
2017-08-25T08:14:56.473Z,27.00
2017-08-25T08:17:22.687Z,26.90
2017-08-25T08:19:48.837Z,25.90
2017-08-25T08:22:15.008Z,25.20
2017-08-25T08:24:41.276Z,24.80
2017-08-25T08:27:07.496Z,25.20
2017-08-25T08:29:33.688Z,25.50
2017-08-25T08:31:59.834Z,25.80
2017-08-25T08:34:26.762Z,26.10
2017-08-25T08:36:53.658Z,26.20
2017-08-25T08:39:19.836Z,26.20
2017-08-25T08:41:46.774Z,26.30
2017-08-25T08:44:12.961Z,26.50
2017-08-25T08:46:39.119Z,26.40
2017-08-25T08:49:05.365Z,26.70
2017-08-25T08:51:31.526Z,26.90
2017-08-25T08:53:57.855Z,26.70
2017-08-25T08:56:25.194Z,26.40
2017-08-25T08:58:51.385Z,26.30
2017-08-25T09:01:22.100Z,26.30
2017-08-25T09:03:50.646Z,26.30
2017-08-25T09:06:23.234Z,26.30
2017-08-25T09:08:51.127Z,26.60
2017-08-25T09:11:18.408Z,26.70
2017-08-25T09:13:44.575Z,26.50
2017-08-25T09:16:10.734Z,26.40
2017-08-25T09:18:36.911Z,26.60
2017-08-25T09:21:03.086Z,27.00
2017-08-25T09:23:29.240Z,27.40
2017-08-25T09:25:55.469Z,27.20
2017-08-25T09:28:21.593Z,27.00
2017-08-25T09:30:47.819Z,27.10
2017-08-25T09:33:14.014Z,27.30
2017-08-25T09:35:40.214Z,27.60
2017-08-25T09:38:06.403Z,27.70
2017-08-25T09:40:32.544Z,27.60
2017-08-25T09:42:58.803Z,27.50
2017-08-25T09:45:24.973Z,27.60
2017-08-25T09:47:51.158Z,28.00
2017-08-25T09:50:17.358Z,28.20
2017-08-25T09:52:43.891Z,28.10
2017-08-25T09:55:10.093Z,28.10
2017-08-25T09:57:37.431Z,28.30
2017-08-25T10:00:03.610Z,28.20
2017-08-25T10:02:29.807Z,28.30
2017-08-25T10:04:55.968Z,28.50
2017-08-25T10:07:22.962Z,28.20
2017-08-25T10:09:49.148Z,28.20
2017-08-25T10:12:15.364Z,28.00
2017-08-25T10:14:43.506Z,27.80
2017-08-25T10:17:09.948Z,28.10
2017-08-25T10:19:36.093Z,28.40
2017-08-25T10:22:02.285Z,28.60
2017-08-25T10:24:28.866Z,29.00
2017-08-25T10:26:55.062Z,29.40
2017-08-25T10:29:21.267Z,29.60
2017-08-25T10:31:47.505Z,30.00
2017-08-25T10:34:25.975Z,30.00
2017-08-25T10:37:04.364Z,30.00
2017-08-25T10:42:43.913Z,30.10
2017-08-25T10:45:10.113Z,29.90
2017-08-25T10:47:36.710Z,29.90
2017-08-25T10:50:02.954Z,29.90
2017-08-25T10:52:29.125Z,30.10
2017-08-25T10:54:55.290Z,30.00
2017-08-25T10:57:21.451Z,30.20
2017-08-25T10:59:47.649Z,30.40
2017-08-25T11:02:13.821Z,30.50
2017-08-25T11:04:40.494Z,30.40
2017-08-25T11:07:06.685Z,30.20
2017-08-25T11:09:32.890Z,30.40
2017-08-25T11:11:59.102Z,30.60
2017-08-25T11:14:25.269Z,30.70
2017-08-25T11:16:51.467Z,30.80
2017-08-25T11:19:17.632Z,30.80
2017-08-25T11:21:43.823Z,30.90
2017-08-25T11:24:10.104Z,31.00
2017-08-25T11:26:36.309Z,31.20
2017-08-25T11:29:02.506Z,31.20
2017-08-25T11:31:29.095Z,31.00
2017-08-25T11:33:55.276Z,30.80
2017-08-25T11:36:21.481Z,31.00
2017-08-25T11:38:48.032Z,31.60
2017-08-25T11:41:14.207Z,31.60
2017-08-25T11:43:40.486Z,31.50
2017-08-25T11:46:06.650Z,31.40
2017-08-25T11:48:33.104Z,31.30
2017-08-25T11:50:59.276Z,31.30
2017-08-25T11:53:25.577Z,31.00
2017-08-25T11:55:52.032Z,30.90
2017-08-25T11:58:18.220Z,30.90
2017-08-25T12:00:45.120Z,30.80
2017-08-25T12:03:11.348Z,31.20
2017-08-25T12:05:37.591Z,31.60
2017-08-25T12:08:05.282Z,31.70
2017-08-25T12:10:31.450Z,31.80
2017-08-25T12:12:57.646Z,31.90
2017-08-25T12:15:23.841Z,32.00
2017-08-25T12:17:50.022Z,32.30
2017-08-25T12:20:16.208Z,32.30
2017-08-25T12:22:42.677Z,32.30
2017-08-25T12:25:08.874Z,32.10
2017-08-25T12:27:35.063Z,32.00
2017-08-25T12:30:01.632Z,32.40
2017-08-25T12:32:28.576Z,32.30
2017-08-25T12:34:54.746Z,32.50
2017-08-25T12:37:27.527Z,32.90
2017-08-25T12:39:55.933Z,33.40
2017-08-25T12:42:22.483Z,32.70
2017-08-25T12:44:49.472Z,32.80
2017-08-25T12:47:18.322Z,32.70
2017-08-25T12:49:47.432Z,32.70
2017-08-25T12:52:14.938Z,32.70
2017-08-25T12:54:41.153Z,32.30
2017-08-25T12:57:08.210Z,32.00
2017-08-25T12:59:37.675Z,32.00
2017-08-25T13:02:07.274Z,32.20
2017-08-25T13:07:34.589Z,32.30
2017-08-25T13:10:01.065Z,32.50
2017-08-25T13:12:27.242Z,32.80
2017-08-25T13:14:56.369Z,32.20
2017-08-25T13:17:23.588Z,32.00
2017-08-25T13:19:49.798Z,32.00
2017-08-25T13:22:15.988Z,32.30
2017-08-25T13:24:42.906Z,32.10
2017-08-25T13:27:09.107Z,31.70
2017-08-25T13:29:35.696Z,31.30
2017-08-25T13:32:01.910Z,31.10
2017-08-25T13:34:28.107Z,30.60
2017-08-25T13:36:56.009Z,30.50
2017-08-25T13:39:22.604Z,30.30
2017-08-25T13:41:48.805Z,30.30
2017-08-25T13:44:14.973Z,29.90
2017-08-25T13:46:41.416Z,29.60
2017-08-25T13:49:07.638Z,29.00
2017-08-25T13:51:34.682Z,29.30
2017-08-25T13:54:00.899Z,29.30
2017-08-25T13:56:27.427Z,29.30
2017-08-25T13:58:54.011Z,29.60
2017-08-25T14:01:20.624Z,29.70
2017-08-25T14:03:46.853Z,29.30
2017-08-25T14:06:13.395Z,28.70
2017-08-25T14:08:39.950Z,28.30
2017-08-25T14:11:06.839Z,28.20
2017-08-25T14:13:33.062Z,27.90
2017-08-25T14:15:59.249Z,28.30
2017-08-25T14:18:25.438Z,28.50
2017-08-25T14:20:52.067Z,28.30
2017-08-25T14:23:19.135Z,28.00
2017-08-25T14:25:45.304Z,28.20
2017-08-25T14:28:12.481Z,27.70
2017-08-25T14:30:39.767Z,27.50
2017-08-25T14:33:06.382Z,27.70
2017-08-25T14:35:32.639Z,27.70
2017-08-25T14:37:59.892Z,27.70
2017-08-25T14:40:32.038Z,27.70
2017-08-25T14:42:58.423Z,27.80
2017-08-25T14:45:26.386Z,27.30
2017-08-25T14:47:55.563Z,27.70
2017-08-25T14:50:22.726Z,27.80
2017-08-25T14:52:48.929Z,28.00
2017-08-25T14:55:16.683Z,28.00
2017-08-25T14:57:42.875Z,27.80
2017-08-25T15:00:09.740Z,27.90
2017-08-25T15:02:36.053Z,27.70
2017-08-25T15:05:02.617Z,27.80
2017-08-25T15:07:33.572Z,27.40
2017-08-25T15:09:59.750Z,27.40
2017-08-25T15:12:26.670Z,27.40
2017-08-25T15:14:52.849Z,27.40
2017-08-25T15:17:19.742Z,27.40
2017-08-25T15:19:45.902Z,27.20
2017-08-25T15:22:12.841Z,27.30
2017-08-25T15:24:39.032Z,27.30
2017-08-25T15:27:05.630Z,27.30
2017-08-25T15:29:31.810Z,27.20
2017-08-25T15:31:58.010Z,27.20
2017-08-25T15:34:24.199Z,27.10
2017-08-25T15:36:50.787Z,27.20
2017-08-25T15:39:16.979Z,27.10
2017-08-25T15:41:43.155Z,27.00
2017-08-25T15:44:09.338Z,27.00
2017-08-25T15:46:35.541Z,26.90
2017-08-25T15:49:02.759Z,26.80
2017-08-25T15:51:28.980Z,26.80
2017-08-25T15:53:55.909Z,26.60
2017-08-25T15:56:22.127Z,26.30
2017-08-25T15:58:48.321Z,26.10
2017-08-25T16:01:14.543Z,25.80
2017-08-25T16:03:40.783Z,25.60
2017-08-25T16:06:06.950Z,25.50
2017-08-25T16:08:33.146Z,25.30
2017-08-25T16:10:59.354Z,25.10
2017-08-25T16:13:25.906Z,24.70
2017-08-25T16:15:52.099Z,24.80
2017-08-25T16:18:18.288Z,24.60
2017-08-25T16:20:45.243Z,24.60
2017-08-25T16:23:11.832Z,24.80
2017-08-25T16:25:38.792Z,24.50
2017-08-25T16:28:04.983Z,24.30
2017-08-25T16:30:31.557Z,24.30
2017-08-25T16:32:57.767Z,24.30
2017-08-25T16:35:23.926Z,24.40
2017-08-25T16:37:50.138Z,23.80
2017-08-25T16:40:16.359Z,23.70
2017-08-25T16:42:42.583Z,23.90
2017-08-25T16:45:09.113Z,24.10
2017-08-25T16:47:35.375Z,23.80
2017-08-25T16:50:02.313Z,24.00
2017-08-25T16:52:29.255Z,24.00
2017-08-25T16:54:55.480Z,24.00
2017-08-25T16:57:21.703Z,24.20
2017-08-25T16:59:47.956Z,24.00
2017-08-25T17:02:14.850Z,24.00
2017-08-25T17:04:41.038Z,24.00
2017-08-25T17:07:07.622Z,24.00
2017-08-25T17:09:36.563Z,23.90
2017-08-25T17:12:02.813Z,23.80
2017-08-25T17:14:29.347Z,23.80
2017-08-25T17:16:55.567Z,23.70
2017-08-25T17:19:21.730Z,23.60
2017-08-25T17:21:47.953Z,23.70
2017-08-25T17:24:14.155Z,23.70
2017-08-25T17:26:40.372Z,23.60
2017-08-25T17:29:06.947Z,23.60
2017-08-25T17:31:33.102Z,23.70
2017-08-25T17:33:59.379Z,23.50
2017-08-25T17:36:25.570Z,23.30
2017-08-25T17:38:51.754Z,23.30
2017-08-25T17:41:18.946Z,23.30
2017-08-25T17:43:45.189Z,23.30
2017-08-25T17:46:11.394Z,23.10
2017-08-25T17:48:37.623Z,23.10
2017-08-25T17:51:03.902Z,23.00
2017-08-25T17:53:30.083Z,23.00
2017-08-25T17:55:56.324Z,23.00
2017-08-25T17:58:22.539Z,23.00
2017-08-25T18:00:49.788Z,23.00
2017-08-25T18:03:16.794Z,23.00
2017-08-25T18:05:43.014Z,22.80
2017-08-25T18:08:09.218Z,22.90
2017-08-25T18:10:35.383Z,22.90
2017-08-25T18:13:01.575Z,22.90
2017-08-25T18:15:27.781Z,22.80
2017-08-25T18:17:54.006Z,22.90
2017-08-25T18:20:20.193Z,22.90
2017-08-25T18:22:46.406Z,22.90
2017-08-25T18:25:13.691Z,22.90
2017-08-25T18:27:39.975Z,22.80
2017-08-25T18:30:07.812Z,22.80
2017-08-25T18:32:34.045Z,22.80
2017-08-25T18:35:00.555Z,22.90
2017-08-25T18:37:26.778Z,22.90
2017-08-25T18:39:52.947Z,22.80
2017-08-25T18:42:19.147Z,22.80
2017-08-25T18:44:45.348Z,22.90
2017-08-25T18:47:11.565Z,22.70
2017-08-25T18:49:38.561Z,22.70
2017-08-25T18:52:04.796Z,22.70
2017-08-25T18:54:31.005Z,22.60
2017-08-25T18:56:57.190Z,22.50
2017-08-25T18:59:23.740Z,22.60
2017-08-25T19:01:49.951Z,22.60
2017-08-25T19:04:16.193Z,22.50
2017-08-25T19:06:42.500Z,22.60
2017-08-25T19:09:08.734Z,22.60
2017-08-25T19:11:34.947Z,22.60
2017-08-25T19:14:01.886Z,22.60
2017-08-25T19:16:28.075Z,22.60
2017-08-25T19:18:54.402Z,22.60
2017-08-25T19:21:20.600Z,22.60
2017-08-25T19:23:46.799Z,22.50
2017-08-25T19:26:13.382Z,22.50
2017-08-25T19:28:39.563Z,22.50
2017-08-25T19:31:05.783Z,22.50
2017-08-25T19:33:31.982Z,22.50
2017-08-25T19:35:58.162Z,22.50
2017-08-25T19:38:24.328Z,22.50
2017-08-25T19:40:50.529Z,22.40
2017-08-25T19:43:16.746Z,22.40
2017-08-25T19:45:47.671Z,22.40
2017-08-25T19:48:13.886Z,22.30
2017-08-25T19:50:40.797Z,22.30
2017-08-25T19:53:07.061Z,22.30
2017-08-25T19:55:33.264Z,22.30
2017-08-25T19:57:59.456Z,22.30
2017-08-25T20:00:25.698Z,22.20
2017-08-25T20:02:52.229Z,22.30
2017-08-25T20:05:18.604Z,22.20
2017-08-25T20:07:44.892Z,22.30
2017-08-25T20:10:11.057Z,22.20
2017-08-25T20:12:37.264Z,22.20
2017-08-25T20:15:04.343Z,22.20
2017-08-25T20:17:35.444Z,22.10
2017-08-25T20:20:02.280Z,22.20
2017-08-25T20:22:29.217Z,22.30
2017-08-25T20:24:57.099Z,22.30
2017-08-25T20:27:23.570Z,22.20
2017-08-25T20:29:53.303Z,22.10
2017-08-25T20:32:21.137Z,22.00
2017-08-25T20:34:47.753Z,21.90
2017-08-25T20:37:14.845Z,21.90
2017-08-25T20:39:41.536Z,21.80
2017-08-25T20:42:09.685Z,21.80
2017-08-25T20:44:36.111Z,21.90
2017-08-25T20:47:03.186Z,21.90
2017-08-25T20:49:31.232Z,22.00
2017-08-25T20:52:03.676Z,21.90
2017-08-25T20:54:36.986Z,22.00
2017-08-25T20:57:03.380Z,22.10
2017-08-25T20:59:29.548Z,22.00
2017-08-25T21:01:55.710Z,22.10
2017-08-25T21:04:21.964Z,22.00
2017-08-25T21:06:48.163Z,22.00
2017-08-25T21:09:14.401Z,22.00
2017-08-25T21:11:40.611Z,21.90
2017-08-25T21:14:06.803Z,21.90
2017-08-25T21:16:32.999Z,21.80
2017-08-25T21:18:59.189Z,21.70
2017-08-25T21:21:25.393Z,21.70
2017-08-25T21:23:51.631Z,21.70
2017-08-25T21:26:17.834Z,21.60
2017-08-25T21:28:44.143Z,21.60
2017-08-25T21:31:10.359Z,21.60
2017-08-25T21:33:36.553Z,21.70
2017-08-25T21:36:02.734Z,21.50
2017-08-25T21:38:29.000Z,21.40
2017-08-25T21:40:55.195Z,21.40
2017-08-25T21:43:21.438Z,21.30
2017-08-25T21:45:48.544Z,21.30
2017-08-25T21:48:14.962Z,21.30
2017-08-25T21:50:41.196Z,21.40
2017-08-25T21:53:13.857Z,21.40
2017-08-25T21:56:00.179Z,21.40
2017-08-25T21:58:26.373Z,21.30
2017-08-25T22:00:53.306Z,21.20
2017-08-25T22:03:19.515Z,21.20
2017-08-25T22:05:45.710Z,21.10
2017-08-25T22:08:11.918Z,21.10
2017-08-25T22:10:38.138Z,21.10
2017-08-25T22:13:04.339Z,21.20
2017-08-25T22:15:32.746Z,21.20
2017-08-25T22:18:00.575Z,21.20
2017-08-25T22:20:26.810Z,21.20
2017-08-25T22:22:53.004Z,21.10
2017-08-25T22:25:19.175Z,21.00
2017-08-25T22:27:45.481Z,21.00
2017-08-25T22:30:12.458Z,21.00
2017-08-25T22:32:38.629Z,21.00
2017-08-25T22:35:04.912Z,21.00
2017-08-25T22:37:31.084Z,21.00
2017-08-25T22:39:57.249Z,21.10
2017-08-25T22:42:23.441Z,21.10
2017-08-25T22:44:49.670Z,21.20
2017-08-25T22:47:15.877Z,21.00
2017-08-25T22:49:42.800Z,21.00
2017-08-25T22:52:08.973Z,21.00
2017-08-25T22:54:35.171Z,21.00
2017-08-25T22:57:01.355Z,21.00
2017-08-25T22:59:27.537Z,21.10
2017-08-25T23:01:53.739Z,21.10
2017-08-25T23:04:19.921Z,21.10
2017-08-25T23:06:46.899Z,21.00
2017-08-25T23:09:13.094Z,20.90
2017-08-25T23:11:39.294Z,20.90
2017-08-25T23:14:05.478Z,20.80
2017-08-25T23:16:31.649Z,20.80
2017-08-25T23:18:57.817Z,20.70
2017-08-25T23:21:24.011Z,20.60
2017-08-25T23:23:50.195Z,20.70
2017-08-25T23:26:16.371Z,20.70
2017-08-25T23:28:42.952Z,20.70
2017-08-25T23:31:09.863Z,20.70
2017-08-25T23:33:36.047Z,20.70
2017-08-25T23:36:02.594Z,20.70
2017-08-25T23:38:30.255Z,20.70
2017-08-25T23:40:56.421Z,20.60
2017-08-25T23:43:24.123Z,20.70
2017-08-25T23:45:52.782Z,20.80
2017-08-25T23:48:19.894Z,20.70
2017-08-25T23:50:46.051Z,20.70
2017-08-25T23:53:12.254Z,20.60
2017-08-25T23:55:38.427Z,20.60
2017-08-25T23:58:07.036Z,20.60
